Time;durP1;ratioP1;P1;durP2;ratioP2;P2;SDS_P1;SDS_P2;PMS_P1;PMS_P2;Temp;Humidity;BMP_temperature;BMP_pressure;BME280_temperature;BME280_humidity;BME280_pressure;Samples;Min_cycle;Max_cycle;Signal;HPM_P1;HPM_P2
2022/03/10 00:00:45;;;;;;;10.37;3.53;;;2.30;99.90;;;;;;5093172;28;20181;-76
2022/03/10 00:03:10;;;;;;;4.70;2.57;;;2.20;99.90;;;;;;5111214;28;20264;-75
2022/03/10 00:05:36;;;;;;;1.10;1.07;;;2.20;99.90;;;;;;5110835;28;20199;-75
2022/03/10 00:08:01;;;;;;;4.67;2.87;;;2.10;99.90;;;;;;5111125;28;20206;-75
2022/03/10 00:10:27;;;;;;;6.03;2.33;;;2.00;99.90;;;;;;5093256;28;20281;-75
2022/03/10 00:12:53;;;;;;;3.60;1.73;;;1.90;99.90;;;;;;5111066;28;20188;-75
2022/03/10 00:15:22;;;;;;;0.50;0.50;;;1.60;99.90;;;;;;5111335;28;20644;-75
2022/03/10 00:17:48;;;;;;;1.50;0.87;;;1.30;99.90;;;;;;5110972;28;20632;-74
2022/03/10 00:20:13;;;;;;;3.33;3.03;;;1.10;99.90;;;;;;5111398;28;20225;-74
2022/03/10 00:22:47;;;;;;;1.77;1.73;;;0.90;99.90;;;;;;5110928;28;20275;-75
2022/03/10 00:25:13;;;;;;;0.23;0.23;;;0.80;99.90;;;;;;5092879;28;20180;-74
2022/03/10 00:27:39;;;;;;;1.00;1.00;;;0.70;99.90;;;;;;5111057;28;20195;-74
2022/03/10 00:30:07;;;;;;;3.00;2.37;;;0.70;99.90;;;;;;5111383;28;20225;-75
2022/03/10 00:32:32;;;;;;;1.13;1.13;;;0.70;99.90;;;;;;5110901;28;20202;-74
2022/03/10 00:34:58;;;;;;;1.60;1.50;;;0.70;99.90;;;;;;5111385;28;20184;-74
2022/03/10 00:37:24;;;;;;;0.73;0.73;;;0.60;99.90;;;;;;5111166;28;20232;-74
2022/03/10 00:39:49;;;;;;;2.17;1.43;;;0.60;99.90;;;;;;5111285;28;20183;-75
2022/03/10 00:42:15;;;;;;;1.80;1.70;;;0.60;99.90;;;;;;5111122;28;20172;-74
2022/03/10 00:44:40;;;;;;;3.67;1.90;;;0.70;99.90;;;;;;5114276;28;20217;-76
2022/03/10 00:47:06;;;;;;;1.77;1.67;;;0.80;99.90;;;;;;5114924;28;20199;-77
2022/03/10 00:49:31;;;;;;;1.23;1.17;;;0.90;99.90;;;;;;5096465;28;20179;-76
2022/03/10 00:51:57;;;;;;;2.57;1.07;;;1.00;99.90;;;;;;5114576;28;20184;-77
2022/03/10 00:54:22;;;;;;;0.40;0.40;;;1.00;99.90;;;;;;5114308;28;20179;-76
2022/03/10 00:56:48;;;;;;;2.77;2.60;;;1.00;99.90;;;;;;5114246;28;20289;-76
2022/03/10 00:59:13;;;;;;;1.63;1.53;;;0.90;99.90;;;;;;5114307;28;20203;-77
2022/03/10 01:01:39;;;;;;;3.87;2.53;;;0.80;99.90;;;;;;5114119;28;20190;-75
2022/03/10 01:04:04;;;;;;;0.10;0.10;;;0.70;99.90;;;;;;5114369;28;20235;-76
2022/03/10 01:06:30;;;;;;;0.90;0.90;;;0.50;99.90;;;;;;5109551;28;20196;-76
2022/03/10 01:08:55;;;;;;;1.07;1.07;;;0.40;99.90;;;;;;5113544;28;20187;-76
2022/03/10 01:11:21;;;;;;;1.77;1.67;;;0.30;99.90;;;;;;5113879;28;20274;-76
2022/03/10 01:13:46;;;;;;;10.10;2.03;;;0.30;99.90;;;;;;5096010;28;20180;-75
2022/03/10 01:16:12;;;;;;;7.97;3.67;;;0.30;99.90;;;;;;5114238;28;20252;-75
2022/03/10 01:18:37;;;;;;;1.60;1.60;;;0.30;99.90;;;;;;5113855;28;20299;-75
2022/03/10 01:21:03;;;;;;;2.27;2.07;;;0.30;99.90;;;;;;5114134;28;20228;-75
2022/03/10 01:23:28;;;;;;;1.37;1.37;;;0.30;99.90;;;;;;5113539;28;20179;-75
2022/03/10 01:25:54;;;;;;;2.10;2.00;;;0.30;99.90;;;;;;5095539;28;20191;-75
2022/03/10 01:28:20;;;;;;;2.20;1.20;;;0.40;99.90;;;;;;5113620;28;20175;-75
2022/03/10 01:30:45;;;;;;;9.23;4.93;;;0.60;99.90;;;;;;5113972;28;20194;-75
2022/03/10 01:33:11;;;;;;;1.83;1.70;;;0.70;99.90;;;;;;5113508;28;20727;-75
2022/03/10 01:35:36;;;;;;;1.40;1.33;;;0.80;99.90;;;;;;5113617;28;20232;-73
2022/03/10 01:38:02;;;;;;;2.27;2.17;;;1.10;99.90;;;;;;5095052;28;20211;-73
2022/03/10 01:40:28;;;;;;;2.90;1.93;;;1.10;99.90;;;;;;5113547;28;20179;-75
2022/03/10 01:42:53;;;;;;;0.73;0.73;;;1.00;99.90;;;;;;5094939;28;20179;-76
2022/03/10 01:45:19;;;;;;;1.70;1.60;;;0.70;99.90;;;;;;5095310;28;20186;-75
2022/03/10 01:47:44;;;;;;;2.93;2.77;;;0.50;99.90;;;;;;5113411;28;20199;-77
2022/03/10 01:50:13;;;;;;;1.90;1.80;;;0.20;99.90;;;;;;5113545;28;20282;-76
2022/03/10 01:52:40;;;;;;;3.90;3.60;;;-0.10;99.90;;;;;;5094608;28;20719;-76
2022/03/10 01:55:06;;;;;;;2.13;1.80;;;-0.20;99.90;;;;;;5094746;28;20188;-74
2022/03/10 01:57:32;;;;;;;2.77;2.57;;;-0.30;99.90;;;;;;5091216;22;20224;-73
2022/03/10 01:59:58;;;;;;;4.30;4.00;;;-0.20;99.90;;;;;;5052473;28;20271;-71
2022/03/10 02:02:24;;;;;;;0.57;0.57;;;-0.10;99.90;;;;;;5051146;28;20256;-74
2022/03/10 02:04:49;;;;;;;1.33;1.33;;;-0.10;99.90;;;;;;5052402;28;20173;-74
2022/03/10 02:10:17;;;;;;;2.23;2.13;;;0.00;99.90;;;;;;5072687;28;20278;-73
2022/03/10 02:12:48;;;;;;;0.97;0.97;;;0.10;99.90;;;;;;5072122;28;20251;-74
2022/03/10 02:18:03;;;;;;;1.23;1.23;;;0.10;99.90;;;;;;5072051;28;20228;-73
2022/03/10 02:20:29;;;;;;;2.43;2.27;;;0.20;99.90;;;;;;5072100;28;20178;-73
2022/03/10 02:22:55;;;;;;;1.10;1.10;;;0.20;99.90;;;;;;5071683;28;20181;-73
2022/03/10 02:25:22;;;;;;;3.50;3.20;;;0.20;99.90;;;;;;5072034;28;20164;-73
2022/03/10 02:27:53;;;;;;;2.13;1.90;;;0.30;99.90;;;;;;5071833;28;20200;-73
2022/03/10 02:30:20;;;;;;;2.43;2.23;;;0.10;99.90;;;;;;5071830;28;20188;-73
2022/03/10 02:32:46;;;;;;;4.10;2.43;;;0.00;99.90;;;;;;5071425;28;20191;-72
2022/03/10 02:35:13;;;;;;;1.73;1.03;;;-0.10;99.90;;;;;;5071786;28;20250;-73
2022/03/10 02:37:38;;;;;;;8.07;2.77;;;-0.30;99.90;;;;;;5071712;28;20239;-73
2022/03/10 02:40:04;;;;;;;6.07;2.70;;;-0.40;99.90;;;;;;5071618;28;20204;-72
2022/03/10 02:42:31;;;;;;;1.70;1.60;;;-0.40;99.90;;;;;;5069841;28;20172;-73
2022/03/10 02:44:57;;;;;;;1.80;1.70;;;-0.50;99.90;;;;;;5070434;28;20537;-73
2022/03/10 02:47:22;;;;;;;0.33;0.33;;;-0.50;99.90;;;;;;5071497;28;20675;-73
2022/03/10 02:49:48;;;;;;;2.43;2.30;;;-0.50;99.90;;;;;;5071629;28;20179;-72
2022/03/10 02:52:14;;;;;;;4.97;4.67;;;-0.50;99.90;;;;;;5069921;28;20222;-72
2022/03/10 02:54:40;;;;;;;1.40;1.40;;;-0.60;99.90;;;;;;5071368;28;20215;-72
2022/03/10 02:57:05;;;;;;;2.67;2.10;;;-0.60;99.90;;;;;;5071212;28;20260;-71
2022/03/10 02:59:31;;;;;;;1.60;1.50;;;-0.50;99.90;;;;;;5071294;28;20604;-72
2022/03/10 03:01:58;;;;;;;3.33;3.13;;;-0.50;99.90;;;;;;5071056;28;20264;-72
2022/03/10 03:04:24;;;;;;;2.10;2.00;;;-0.50;99.90;;;;;;5071449;28;20259;-72
2022/03/10 03:06:50;;;;;;;0.70;0.70;;;-0.60;99.90;;;;;;5070490;28;20721;-71
2022/03/10 03:09:15;;;;;;;5.23;2.23;;;-0.50;99.90;;;;;;5071152;28;20176;-71
2022/03/10 03:11:41;;;;;;;0.30;0.30;;;-0.60;99.90;;;;;;5070766;28;20188;-72
2022/03/10 03:14:06;;;;;;;7.57;2.17;;;-0.60;99.90;;;;;;5071232;28;20180;-72
2022/03/10 03:16:32;;;;;;;2.60;2.50;;;-0.50;99.90;;;;;;5070945;28;20180;-72
2022/03/10 03:18:58;;;;;;;1.67;1.53;;;-0.40;99.90;;;;;;5071253;28;20693;-71
2022/03/10 03:21:24;;;;;;;1.47;1.43;;;-0.40;99.90;;;;;;5070880;28;20173;-72
2022/03/10 03:23:50;;;;;;;2.03;1.07;;;-0.40;99.90;;;;;;5071121;28;20548;-72
2022/03/10 03:26:16;;;;;;;2.73;2.53;;;-0.30;99.90;;;;;;5070898;28;20173;-72
2022/03/10 03:28:42;;;;;;;4.93;2.17;;;-0.20;99.90;;;;;;5071171;28;20188;-72
2022/03/10 03:31:09;;;;;;;2.73;1.10;;;-0.10;99.90;;;;;;5071005;28;20184;-72
2022/03/10 03:33:35;;;;;;;0.57;0.57;;;0.00;99.90;;;;;;5070790;28;20184;-71
2022/03/10 03:36:01;;;;;;;2.23;2.13;;;0.10;99.90;;;;;;5069706;28;20212;-71
2022/03/10 03:38:27;;;;;;;1.17;1.17;;;0.10;99.90;;;;;;5070707;28;20234;-72
2022/03/10 03:40:52;;;;;;;0.53;0.53;;;0.00;99.90;;;;;;5070676;28;20715;-72
2022/03/10 03:43:18;;;;;;;0.53;0.53;;;-0.10;99.90;;;;;;5070677;28;20181;-71
2022/03/10 03:45:44;;;;;;;3.77;1.67;;;-0.10;99.90;;;;;;5070795;28;20259;-72
2022/03/10 03:48:09;;;;;;;0.93;0.80;;;-0.10;99.90;;;;;;5070867;28;20395;-71
2022/03/10 03:50:35;;;;;;;2.83;2.63;;;-0.10;99.90;;;;;;5070764;28;20537;-71
2022/03/10 03:53:00;;;;;;;1.73;1.63;;;-0.10;99.90;;;;;;5069339;28;20628;-71
2022/03/10 03:55:27;;;;;;;3.00;2.70;;;0.00;99.90;;;;;;5070967;28;20559;-72
2022/03/10 03:57:52;;;;;;;0.60;0.60;;;-0.10;99.90;;;;;;5070571;28;20239;-73
2022/03/10 04:00:19;;;;;;;2.47;2.27;;;-0.30;99.90;;;;;;5069422;28;20188;-71
2022/03/10 04:02:47;;;;;;;1.43;1.43;;;-0.40;99.90;;;;;;5070627;28;20250;-72
2022/03/10 04:05:13;;;;;;;7.67;2.27;;;-0.50;99.90;;;;;;5070804;28;20177;-72
2022/03/10 04:07:39;;;;;;;13.23;2.30;;;-0.30;99.90;;;;;;5070489;28;20199;-71
2022/03/10 04:10:07;;;;;;;2.80;2.60;;;-0.20;99.90;;;;;;5069744;28;20212;-72
2022/03/10 04:12:33;;;;;;;18.00;4.03;;;-0.10;99.90;;;;;;5070520;28;20188;-72
2022/03/10 04:14:59;;;;;;;2.43;2.23;;;-0.10;99.90;;;;;;5070880;28;20215;-72
2022/03/10 04:17:25;;;;;;;4.50;3.70;;;0.00;99.90;;;;;;5071696;28;20231;-71
2022/03/10 04:19:51;;;;;;;3.97;3.77;;;0.10;99.90;;;;;;5073246;28;20188;-73
2022/03/10 04:22:16;;;;;;;1.90;1.80;;;0.10;99.90;;;;;;5074017;28;20585;-72
2022/03/10 04:24:42;;;;;;;0.80;0.80;;;-0.10;99.90;;;;;;5074432;28;20564;-71
2022/03/10 04:27:07;;;;;;;0.60;0.60;;;-0.20;99.90;;;;;;5074349;28;20208;-72
2022/03/10 04:29:33;;;;;;;1.20;1.00;;;-0.40;99.90;;;;;;5074193;28;20234;-72
2022/03/10 04:31:58;;;;;;;2.10;1.90;;;-0.40;99.90;;;;;;5074022;28;20173;-72
2022/03/10 04:34:25;;;;;;;0.53;0.53;;;-0.50;99.90;;;;;;5074154;28;20636;-72
2022/03/10 04:36:50;;;;;;;2.07;1.97;;;-0.60;99.90;;;;;;5073974;28;20656;-73
2022/03/10 04:39:16;;;;;;;0.63;0.63;;;-0.60;99.90;;;;;;5074228;28;20196;-72
2022/03/10 04:41:42;;;;;;;3.63;2.90;;;-0.60;99.90;;;;;;5073742;28;20168;-72
2022/03/10 04:44:07;;;;;;;1.93;1.87;;;-0.70;99.90;;;;;;5074041;28;20588;-72
2022/03/10 04:46:33;;;;;;;1.37;1.37;;;-0.60;99.90;;;;;;5072663;28;20180;-72
2022/03/10 04:48:58;;;;;;;0.43;0.43;;;-0.50;99.90;;;;;;5073823;28;20180;-72
2022/03/10 04:51:24;;;;;;;0.50;0.50;;;-0.60;99.90;;;;;;5073533;28;20180;-72
2022/03/10 04:53:49;;;;;;;0.63;0.63;;;-0.60;99.90;;;;;;5072457;28;20180;-72
2022/03/10 04:56:15;;;;;;;1.63;1.57;;;-0.70;99.90;;;;;;5072466;28;20195;-72
2022/03/10 04:58:41;;;;;;;1.23;1.23;;;-0.80;99.90;;;;;;5073583;28;20575;-73
2022/03/10 05:01:06;;;;;;;3.27;3.03;;;-0.80;99.90;;;;;;5073775;28;20180;-72
2022/03/10 05:03:32;;;;;;;2.23;2.13;;;-0.90;99.90;;;;;;5072259;28;20299;-72
2022/03/10 05:05:59;;;;;;;4.37;3.33;;;-0.90;99.90;;;;;;5073477;28;20183;-72
2022/03/10 05:08:25;;;;;;;1.33;1.33;;;-0.90;99.90;;;;;;5073506;28;20208;-73
2022/03/10 05:10:50;;;;;;;0.77;0.77;;;-1.00;99.90;;;;;;5073690;28;20183;-73
2022/03/10 05:13:16;;;;;;;0.37;0.37;;;-1.00;99.90;;;;;;5073228;28;20184;-73
2022/03/10 05:15:41;;;;;;;0.70;0.70;;;-0.90;99.90;;;;;;5073453;28;20191;-71
2022/03/10 05:18:07;;;;;;;3.37;1.30;;;-0.90;99.90;;;;;;5073539;28;20300;-72
2022/03/10 05:20:33;;;;;;;0.63;0.63;;;-0.90;99.90;;;;;;5073423;28;20169;-72
2022/03/10 05:23:00;;;;;;;4.50;2.33;;;-0.80;99.90;;;;;;5072874;28;20202;-73
2022/03/10 05:25:32;;;;;;;2.17;2.07;;;-0.80;99.90;;;;;;5073302;28;20173;-73
2022/03/10 05:27:58;;;;;;;2.03;1.93;;;-0.90;99.90;;;;;;5072832;28;20204;-72
2022/03/10 05:30:24;;;;;;;2.37;2.27;;;-0.80;99.90;;;;;;5072789;28;20176;-72
2022/03/10 05:32:49;;;;;;;0.50;0.50;;;-0.60;99.90;;;;;;5072854;28;20263;-72
2022/03/10 05:35:16;;;;;;;1.33;1.13;;;-0.40;99.90;;;;;;5072885;28;20639;-72
2022/03/10 05:37:43;;;;;;;2.57;2.47;;;-0.30;99.90;;;;;;5073561;28;20602;-72
2022/03/10 05:40:14;;;;;;;0.90;0.90;;;-0.20;99.90;;;;;;5073723;28;20180;-74
2022/03/10 05:42:41;;;;;;;4.33;3.90;;;-0.20;99.90;;;;;;5072802;28;20185;-72
2022/03/10 05:45:08;;;;;;;3.13;2.90;;;-0.20;99.90;;;;;;5072337;28;20184;-72
2022/03/10 05:47:35;;;;;;;1.50;1.50;;;-0.30;99.90;;;;;;5073399;28;20639;-73
2022/03/10 05:50:01;;;;;;;2.93;2.73;;;-0.40;99.90;;;;;;5073071;28;20257;-72
2022/03/10 05:52:27;;;;;;;5.73;4.27;;;-0.50;99.90;;;;;;5071019;28;20210;-72
2022/03/10 05:54:52;;;;;;;0.73;0.73;;;-0.50;99.90;;;;;;5073225;28;20317;-74
2022/03/10 05:57:18;;;;;;;1.33;1.33;;;-0.60;99.90;;;;;;5073174;28;20222;-72
2022/03/10 05:59:43;;;;;;;1.43;1.37;;;-0.60;99.90;;;;;;5077064;28;20172;-72
2022/03/10 06:02:09;;;;;;;1.80;1.70;;;-0.70;99.90;;;;;;5076179;28;20187;-72
2022/03/10 06:04:35;;;;;;;2.20;1.73;;;-0.70;99.90;;;;;;5076177;28;20195;-74
2022/03/10 06:07:00;;;;;;;3.47;2.17;;;-0.70;99.90;;;;;;5071218;28;20198;-73
2022/03/10 06:09:26;;;;;;;4.37;3.10;;;-0.80;99.90;;;;;;5071044;28;20176;-72
2022/03/10 06:11:51;;;;;;;0.20;0.20;;;-0.80;99.90;;;;;;5071882;28;20652;-73
2022/03/10 06:14:18;;;;;;;1.67;1.60;;;-0.70;99.90;;;;;;5071037;28;20533;-72
2022/03/10 06:16:44;;;;;;;1.40;1.40;;;-0.70;99.90;;;;;;5072666;28;20212;-72
2022/03/10 06:19:09;;;;;;;4.17;3.20;;;-0.70;99.90;;;;;;5072594;28;20211;-73
2022/03/10 06:21:35;;;;;;;1.70;1.33;;;-0.70;99.90;;;;;;5069127;28;20652;-71
2022/03/10 06:24:01;;;;;;;3.17;2.97;;;-0.60;99.90;;;;;;5059850;28;20199;-71
2022/03/10 06:26:27;;;;;;;1.00;1.00;;;-0.60;99.90;;;;;;5064689;28;20180;-72
2022/03/10 06:28:52;;;;;;;1.17;1.17;;;-0.50;99.90;;;;;;5064148;28;20179;-71
2022/03/10 06:31:19;;;;;;;2.03;1.90;;;-0.40;99.90;;;;;;5070288;28;20289;-73
2022/03/10 06:33:44;;;;;;;1.30;1.23;;;-0.30;99.90;;;;;;5069953;28;20177;-73
2022/03/10 06:36:11;;;;;;;0.40;0.40;;;-0.20;99.90;;;;;;5071632;28;20558;-73
2022/03/10 06:38:37;;;;;;;3.70;1.80;;;-0.10;99.90;;;;;;5071148;28;20610;-73
2022/03/10 06:41:03;;;;;;;6.07;5.57;;;-0.10;99.90;;;;;;5070343;28;20229;-73
2022/03/10 06:43:28;;;;;;;0.60;0.60;;;-0.10;99.90;;;;;;5070691;28;20181;-73
2022/03/10 06:45:54;;;;;;;5.97;3.97;;;0.00;99.90;;;;;;5070815;28;20184;-73
2022/03/10 06:48:20;;;;;;;1.00;1.00;;;0.10;99.90;;;;;;5071070;28;20204;-74
2022/03/10 06:50:45;;;;;;;1.00;1.00;;;0.20;99.90;;;;;;5069370;28;20176;-74
2022/03/10 06:53:12;;;;;;;5.07;2.30;;;0.20;99.90;;;;;;5070264;28;20793;-74
2022/03/10 06:55:38;;;;;;;4.63;4.27;;;0.30;99.90;;;;;;5071021;28;20169;-73
2022/03/10 06:58:04;;;;;;;2.90;2.80;;;0.40;99.90;;;;;;5069436;28;20208;-73
2022/03/10 07:00:30;;;;;;;0.40;0.40;;;0.50;99.90;;;;;;5071049;28;20264;-73
2022/03/10 07:02:56;;;;;;;3.07;2.87;;;0.70;99.90;;;;;;5070922;28;20644;-72
2022/03/10 07:05:23;;;;;;;1.33;1.33;;;0.80;99.90;;;;;;5070803;28;20282;-73
2022/03/10 07:07:49;;;;;;;1.40;1.33;;;1.00;99.90;;;;;;5070746;28;20203;-74
2022/03/10 07:10:15;;;;;;;2.40;2.20;;;1.00;99.90;;;;;;5071033;28;20264;-73
2022/03/10 07:12:41;;;;;;;4.67;2.77;;;1.10;99.90;;;;;;5070520;28;20188;-73
2022/03/10 07:15:09;;;;;;;4.20;3.20;;;1.20;99.90;;;;;;5070873;28;20183;-72
2022/03/10 07:17:34;;;;;;;1.63;1.53;;;1.30;99.90;;;;;;5070545;28;20230;-73
2022/03/10 07:20:00;;;;;;;2.07;1.87;;;1.40;99.90;;;;;;5067931;28;20176;-74
2022/03/10 07:22:25;;;;;;;2.40;2.20;;;1.40;99.90;;;;;;5070425;28;20203;-73
2022/03/10 07:24:52;;;;;;;1.90;0.87;;;1.50;99.90;;;;;;5070137;28;20169;-73
2022/03/10 07:27:18;;;;;;;5.10;3.50;;;1.60;99.90;;;;;;5070495;28;20226;-73
2022/03/10 07:29:43;;;;;;;1.73;1.63;;;1.70;99.90;;;;;;5070445;28;20208;-73
2022/03/10 07:32:09;;;;;;;1.90;1.77;;;1.90;99.90;;;;;;5070332;28;20653;-72
2022/03/10 07:34:35;;;;;;;3.10;1.57;;;2.00;99.90;;;;;;5070180;28;20180;-73
2022/03/10 07:37:00;;;;;;;0.50;0.50;;;2.10;99.90;;;;;;5070705;28;20220;-70
2022/03/10 07:39:26;;;;;;;2.63;2.43;;;2.30;99.90;;;;;;5070512;28;20204;-70
2022/03/10 07:41:52;;;;;;;4.00;3.70;;;2.50;99.90;;;;;;5068456;28;20272;-72
2022/03/10 07:44:17;;;;;;;6.43;5.40;;;2.70;99.90;;;;;;5068333;28;20577;-73
2022/03/10 07:46:43;;;;;;;0.67;0.67;;;2.90;99.90;;;;;;5070329;28;20194;-73
2022/03/10 07:49:11;;;;;;;8.63;2.87;;;3.10;99.90;;;;;;5068440;28;20177;-73
2022/03/10 07:51:38;;;;;;;4.63;2.37;;;3.30;99.90;;;;;;5070339;28;20186;-72
2022/03/10 07:54:03;;;;;;;6.00;3.63;;;3.50;99.90;;;;;;5074684;28;20175;-73
2022/03/10 07:56:29;;;;;;;3.70;2.07;;;3.70;99.90;;;;;;5074127;28;20182;-73
2022/03/10 07:58:54;;;;;;;3.20;3.00;;;3.90;99.90;;;;;;5075549;28;20199;-74
2022/03/10 08:01:20;;;;;;;1.53;1.47;;;4.10;99.90;;;;;;5072789;28;20187;-73
2022/03/10 08:03:48;;;;;;;3.73;1.83;;;4.20;99.90;;;;;;5073060;28;20183;-73
2022/03/10 08:06:14;;;;;;;2.63;2.53;;;4.30;99.90;;;;;;5074027;28;20262;-72
2022/03/10 08:08:40;;;;;;;11.17;4.73;;;4.40;99.90;;;;;;5074071;28;20617;-73
2022/03/10 08:11:06;;;;;;;7.87;2.33;;;4.70;99.90;;;;;;5073938;28;20259;-73
2022/03/10 08:13:32;;;;;;;5.73;5.20;;;4.70;99.90;;;;;;5073962;28;20176;-73
2022/03/10 08:15:58;;;;;;;1.60;1.60;;;4.80;99.90;;;;;;5073995;28;20269;-74
2022/03/10 08:18:24;;;;;;;3.03;2.13;;;4.80;99.90;;;;;;5072175;28;20706;-73
2022/03/10 08:20:50;;;;;;;7.20;3.20;;;5.00;99.90;;;;;;5073854;28;20181;-73
2022/03/10 08:23:18;;;;;;;3.37;2.63;;;5.10;99.90;;;;;;5073573;28;20237;-73
2022/03/10 08:25:44;;;;;;;5.00;3.90;;;5.30;99.90;;;;;;5072939;28;20823;-73
2022/03/10 08:28:10;;;;;;;5.83;2.43;;;5.30;99.90;;;;;;5072623;28;20200;-73
2022/03/10 08:30:37;;;;;;;6.30;4.60;;;5.50;99.90;;;;;;5074133;28;20642;-74
2022/03/10 08:33:03;;;;;;;7.40;2.70;;;5.70;99.90;;;;;;5073851;28;20556;-73
2022/03/10 08:35:29;;;;;;;1.40;1.27;;;5.90;99.90;;;;;;5073129;28;20184;-74
2022/03/10 08:37:55;;;;;;;2.50;2.40;;;6.00;99.90;;;;;;5073420;28;20567;-74
2022/03/10 08:40:21;;;;;;;13.47;3.67;;;6.10;99.90;;;;;;5073827;28;20181;-74
2022/03/10 08:42:48;;;;;;;3.43;2.53;;;6.30;99.90;;;;;;5073183;28;20335;-74
2022/03/10 08:45:14;;;;;;;1.57;1.47;;;6.50;99.90;;;;;;5073701;28;20181;-74
2022/03/10 08:47:40;;;;;;;11.50;3.77;;;6.70;99.90;;;;;;5073500;28;20211;-74
2022/03/10 08:50:06;;;;;;;2.83;2.30;;;6.80;99.90;;;;;;5073452;28;20177;-74
2022/03/10 08:52:32;;;;;;;2.53;2.37;;;6.90;99.90;;;;;;5072994;28;20218;-74
2022/03/10 08:54:58;;;;;;;4.40;2.67;;;7.20;99.90;;;;;;5073244;28;20207;-75
2022/03/10 08:57:23;;;;;;;4.80;3.20;;;7.40;99.90;;;;;;5071791;28;20592;-75
2022/03/10 08:59:50;;;;;;;3.37;2.80;;;7.70;99.90;;;;;;5073556;28;20181;-76
2022/03/10 09:02:16;;;;;;;2.53;2.33;;;7.80;99.90;;;;;;5071966;28;20187;-75
2022/03/10 09:04:42;;;;;;;0.60;0.60;;;7.90;99.90;;;;;;5071526;28;20176;-73
2022/03/10 09:07:07;;;;;;;5.27;3.37;;;8.00;99.90;;;;;;5072430;28;20242;-75
2022/03/10 09:09:33;;;;;;;6.33;4.27;;;8.10;99.90;;;;;;5073895;28;20574;-73
2022/03/10 09:11:58;;;;;;;4.27;3.50;;;8.20;99.90;;;;;;5073255;28;20187;-73
2022/03/10 09:14:24;;;;;;;4.43;3.57;;;8.30;99.90;;;;;;5072238;28;20643;-75
2022/03/10 09:16:52;;;;;;;4.07;3.60;;;8.40;99.90;;;;;;5073312;28;20271;-75
2022/03/10 09:19:18;;;;;;;0.87;0.87;;;8.50;99.90;;;;;;5071355;28;20295;-73
2022/03/10 09:21:44;;;;;;;4.73;3.90;;;8.60;99.90;;;;;;5072000;28;20255;-75
2022/03/10 09:24:10;;;;;;;4.90;2.43;;;8.70;99.90;;;;;;5073000;28;20233;-75
2022/03/10 09:26:38;;;;;;;3.80;2.43;;;9.00;99.90;;;;;;5071057;28;20215;-74
2022/03/10 09:29:04;;;;;;;2.37;2.17;;;9.00;99.90;;;;;;5072598;28;20172;-74
2022/03/10 09:31:30;;;;;;;10.53;5.90;;;9.10;99.90;;;;;;5071276;28;20176;-74
2022/03/10 09:33:55;;;;;;;1.43;1.40;;;9.30;99.90;;;;;;5072748;28;20185;-74
2022/03/10 09:36:21;;;;;;;5.00;3.17;;;9.50;99.90;;;;;;5071250;28;20195;-74
2022/03/10 09:38:47;;;;;;;11.63;2.20;;;9.70;99.90;;;;;;5072572;28;20204;-75
2022/03/10 09:41:12;;;;;;;12.88;6.03;;;9.80;99.90;;;;;;5071909;28;20400;-75
2022/03/10 09:43:39;;;;;;;4.13;1.90;;;10.00;99.90;;;;;;5071376;28;20176;-75
2022/03/10 09:46:08;;;;;;;3.40;3.20;;;10.00;99.90;;;;;;5071147;28;20211;-75
2022/03/10 09:48:35;;;;;;;3.43;3.07;;;10.20;99.90;;;;;;5071026;28;20231;-74
2022/03/10 09:51:01;;;;;;;6.37;4.67;;;10.30;99.90;;;;;;5072317;28;20866;-75
2022/03/10 09:53:27;;;;;;;7.00;4.90;;;10.40;99.90;;;;;;5072133;28;20176;-73
2022/03/10 09:55:54;;;;;;;4.60;3.73;;;10.30;99.90;;;;;;5072088;28;20188;-74
2022/03/10 09:58:20;;;;;;;8.43;5.13;;;10.40;99.90;;;;;;5070985;28;20221;-75
2022/03/10 10:00:45;;;;;;;9.03;5.57;;;10.70;99.90;;;;;;5072013;28;20218;-74
2022/03/10 10:03:11;;;;;;;13.57;4.33;;;10.80;99.90;;;;;;5072044;28;20189;-76
2022/03/10 10:05:40;;;;;;;4.83;3.07;;;10.70;99.90;;;;;;5071869;28;20177;-75
2022/03/10 10:08:17;;;;;;;5.87;4.33;;;10.90;99.90;;;;;;5070582;28;20752;-75
2022/03/10 10:10:48;;;;;;;5.20;3.90;;;11.10;99.90;;;;;;5072069;28;20263;-75
2022/03/10 10:13:34;;;;;;;3.33;3.03;;;11.30;99.90;;;;;;5071844;28;20229;-74
2022/03/10 10:16:01;;;;;;;4.67;4.17;;;11.50;99.90;;;;;;5071273;28;20176;-75
2022/03/10 10:18:29;;;;;;;5.87;3.13;;;11.60;99.90;;;;;;5071944;28;20240;-75
2022/03/10 10:20:55;;;;;;;3.87;3.57;;;11.60;99.90;;;;;;5072348;28;20218;-75
2022/03/10 10:23:24;;;;;;;3.63;3.43;;;11.70;99.90;;;;;;5070266;28;20877;-75
2022/03/10 10:26:03;;;;;;;4.83;4.37;;;12.10;99.90;;;;;;5070758;28;20202;-77
2022/03/10 10:28:34;;;;;;;8.03;4.43;;;12.20;99.90;;;;;;5058857;28;20337;-75
2022/03/10 10:31:14;;;;;;;8.83;5.03;;;12.40;99.90;;;;;;5071949;28;20241;-74
2022/03/10 10:33:42;;;;;;;7.40;4.83;;;12.40;99.90;;;;;;5071478;28;20176;-73
2022/03/10 10:36:24;;;;;;;5.07;4.50;;;12.50;99.90;;;;;;5071653;28;20198;-74
2022/03/10 10:38:52;;;;;;;4.73;4.33;;;12.70;99.90;;;;;;5069632;28;20214;-74
2022/03/10 10:41:21;;;;;;;6.37;5.60;;;13.00;99.90;;;;;;5070782;28;20188;-74
2022/03/10 10:43:52;;;;;;;7.37;3.03;;;13.30;99.90;;;;;;5071523;28;20184;-74
2022/03/10 10:46:32;;;;;;;3.30;3.10;;;13.60;99.90;;;;;;5069651;28;20602;-74
2022/03/10 10:49:01;;;;;;;8.80;5.57;;;13.80;99.90;;;;;;5071318;28;20191;-74
2022/03/10 10:51:29;;;;;;;5.63;3.40;;;14.00;99.90;;;;;;5070671;28;20574;-75
2022/03/10 10:53:55;;;;;;;8.37;3.23;;;14.10;99.90;;;;;;5071004;28;20176;-75
2022/03/10 10:56:22;;;;;;;4.07;3.30;;;14.40;99.90;;;;;;5069700;28;20192;-74
2022/03/10 10:58:48;;;;;;;6.37;3.20;;;14.90;99.90;;;;;;5069567;28;20219;-74
2022/03/10 11:01:31;;;;;;;5.97;3.60;;;14.90;99.90;;;;;;5070839;28;20251;-76
2022/03/10 11:03:57;;;;;;;7.60;5.77;;;14.80;99.90;;;;;;5069536;28;20203;-75
2022/03/10 11:06:22;;;;;;;3.70;3.37;;;15.00;99.90;;;;;;5070600;28;20211;-74
2022/03/10 11:08:48;;;;;;;4.07;3.13;;;14.80;99.40;;;;;;5069450;28;20192;-76
2022/03/10 11:11:20;;;;;;;4.70;4.27;;;14.80;99.90;;;;;;5060704;28;20189;-76
2022/03/10 11:13:46;;;;;;;4.23;3.90;;;15.00;99.80;;;;;;5071217;28;20547;-75
2022/03/10 11:16:13;;;;;;;8.93;5.20;;;15.10;97.70;;;;;;5070189;28;20186;-75
2022/03/10 11:18:43;;;;;;;3.67;3.13;;;15.30;97.10;;;;;;5060869;28;20216;-75
2022/03/10 11:21:11;;;;;;;17.13;5.60;;;15.40;96.50;;;;;;5070655;28;20239;-76
2022/03/10 11:24:14;;;;;;;2.03;1.93;;;15.40;95.20;;;;;;5066068;28;20176;-76
2022/03/10 11:26:55;;;;;;;5.20;3.87;;;15.30;91.30;;;;;;5069018;28;20203;-75
2022/03/10 11:29:26;;;;;;;6.17;4.53;;;15.50;93.90;;;;;;5070830;28;20186;-74
2022/03/10 11:31:54;;;;;;;8.13;2.90;;;16.00;93.80;;;;;;5070745;28;20189;-74
2022/03/10 11:34:47;;;;;;;7.50;4.17;;;16.10;90.70;;;;;;5070655;28;20192;-75
2022/03/10 11:37:34;;;;;;;7.63;3.70;;;15.90;85.90;;;;;;5070491;28;20206;-75
2022/03/10 11:40:01;;;;;;;39.57;4.47;;;16.10;84.30;;;;;;5051001;28;20204;-76
2022/03/10 11:42:29;;;;;;;3.97;2.73;;;16.30;86.30;;;;;;5070649;28;20582;-75
2022/03/10 11:45:18;;;;;;;6.97;3.37;;;16.60;83.90;;;;;;5071012;28;20180;-74
2022/03/10 11:47:45;;;;;;;5.37;3.50;;;16.80;84.00;;;;;;5069178;28;20439;-74
2022/03/10 11:50:23;;;;;;;9.97;4.33;;;17.00;82.30;;;;;;5070223;28;20178;-74
2022/03/10 11:52:56;;;;;;;6.03;3.33;;;16.80;80.70;;;;;;5067972;28;20190;-75
2022/03/10 11:55:23;;;;;;;4.13;2.80;;;17.20;78.80;;;;;;5069379;28;20185;-74
2022/03/10 11:57:54;;;;;;;10.43;3.58;;;17.20;79.90;;;;;;5069134;28;20858;-76
2022/03/10 12:00:24;;;;;;;4.83;2.03;;;17.30;76.80;;;;;;5070096;28;20176;-76
2022/03/10 12:02:57;;;;;;;7.60;3.97;;;17.20;75.70;;;;;;5068728;28;20182;-73
2022/03/10 12:05:23;;;;;;;7.70;3.63;;;17.40;76.50;;;;;;5071269;28;20602;-75
2022/03/10 12:07:54;;;;;;;7.00;5.10;;;18.00;73.00;;;;;;5062455;28;20211;-75
2022/03/10 12:10:20;;;;;;;3.97;2.33;;;17.90;73.70;;;;;;5068576;28;20180;-80
2022/03/10 12:12:46;;;;;;;4.53;3.50;;;18.20;70.10;;;;;;5072291;28;20183;-78
2022/03/10 12:15:35;;;;;;;3.33;3.03;;;18.10;70.20;;;;;;5059219;28;20494;-77
2022/03/10 12:18:18;;;;;;;8.55;4.45;;;18.50;69.80;;;;;;5063212;28;20424;-79
2022/03/10 12:20:44;;;;;;;3.80;3.50;;;18.60;66.90;;;;;;5070075;28;20184;-73
2022/03/10 12:23:13;;;;;;;4.63;3.03;;;18.10;66.50;;;;;;5061621;28;20236;-73
2022/03/10 12:25:41;;;;;;;16.33;4.07;;;18.30;70.40;;;;;;5069927;28;20179;-75
2022/03/10 12:28:08;;;;;;;7.47;6.07;;;18.40;67.80;;;;;;5069340;28;20257;-77
2022/03/10 12:30:44;;;;;;;3.07;2.77;;;18.40;67.30;;;;;;5069895;28;20212;-77
2022/03/10 12:33:10;;;;;;;3.40;3.10;;;18.50;68.20;;;;;;5068923;28;20172;-72
2022/03/10 12:35:37;;;;;;;2.30;1.97;;;18.60;68.80;;;;;;5069499;28;20177;-76
2022/03/10 12:38:03;;;;;;;6.67;3.17;;;18.20;63.60;;;;;;5070480;28;20219;-75
2022/03/10 12:40:32;;;;;;;3.03;2.17;;;18.80;65.20;;;;;;5073076;28;20168;-76
2022/03/10 12:43:02;;;;;;;6.73;4.43;;;18.90;62.20;;;;;;5071338;28;20186;-76
2022/03/10 12:45:29;;;;;;;3.77;3.33;;;18.40;61.00;;;;;;5073748;28;20177;-75
2022/03/10 12:48:26;;;;;;;10.40;2.27;;;18.80;62.00;;;;;;5072093;28;20200;-77
2022/03/10 12:50:52;;;;;;;4.87;4.10;;;18.70;60.80;;;;;;5070100;28;20274;-73
2022/03/10 12:53:18;;;;;;;4.40;3.97;;;19.00;60.20;;;;;;5071017;28;20267;-73
2022/03/10 12:55:45;;;;;;;2.73;2.53;;;19.20;61.00;;;;;;5072039;28;20616;-76